sensor_id;sensor_type;location;lat;lon;timestamp;pressure;altitude;pressure_sealevel;temperature;humidity
65758;BME280;52495;52.208;5.158;2024-03-29T00:01:05;98854.03;;;9.76;71.89
65758;BME280;52495;52.208;5.158;2024-03-29T00:03:32;98846.25;;;9.78;71.07
65758;BME280;52495;52.208;5.158;2024-03-29T00:05:57;98842.91;;;9.76;71.01
65758;BME280;52495;52.208;5.158;2024-03-29T00:08:23;98845.53;;;9.74;71.30
65758;BME280;52495;52.208;5.158;2024-03-29T00:10:49;98844.81;;;9.72;71.00
65758;BME280;52495;52.208;5.158;2024-03-29T00:13:15;98847.38;;;9.72;71.02
65758;BME280;52495;52.208;5.158;2024-03-29T00:15:40;98856.00;;;9.71;71.07
65758;BME280;52495;52.208;5.158;2024-03-29T00:18:06;98855.13;;;9.72;71.53
65758;BME280;52495;52.208;5.158;2024-03-29T00:20:33;98850.84;;;9.71;71.27
65758;BME280;52495;52.208;5.158;2024-03-29T00:22:59;98852.53;;;9.72;71.87
65758;BME280;52495;52.208;5.158;2024-03-29T00:25:25;98848.41;;;9.68;71.39
65758;BME280;52495;52.208;5.158;2024-03-29T00:27:51;98848.28;;;9.71;71.11
65758;BME280;52495;52.208;5.158;2024-03-29T00:30:17;98846.75;;;9.67;71.42
65758;BME280;52495;52.208;5.158;2024-03-29T00:32:42;98852.81;;;9.66;71.29
65758;BME280;52495;52.208;5.158;2024-03-29T00:35:08;98858.03;;;9.64;71.56
65758;BME280;52495;52.208;5.158;2024-03-29T00:37:35;98857.19;;;9.64;71.55
65758;BME280;52495;52.208;5.158;2024-03-29T00:40:01;98857.81;;;9.69;70.87
65758;BME280;52495;52.208;5.158;2024-03-29T00:42:27;98851.25;;;9.62;71.77
65758;BME280;52495;52.208;5.158;2024-03-29T00:44:52;98866.03;;;9.58;72.17
65758;BME280;52495;52.208;5.158;2024-03-29T00:47:18;98872.84;;;9.59;71.88
65758;BME280;52495;52.208;5.158;2024-03-29T00:49:44;98871.25;;;9.56;71.31
65758;BME280;52495;52.208;5.158;2024-03-29T00:52:10;98870.16;;;9.62;71.14
65758;BME280;52495;52.208;5.158;2024-03-29T00:54:37;98873.69;;;9.60;71.20
65758;BME280;52495;52.208;5.158;2024-03-29T00:57:03;98879.06;;;9.55;71.60
65758;BME280;52495;52.208;5.158;2024-03-29T00:59:29;98873.91;;;9.55;71.19
65758;BME280;52495;52.208;5.158;2024-03-29T01:01:54;98871.31;;;9.55;71.03
65758;BME280;52495;52.208;5.158;2024-03-29T01:04:20;98879.91;;;9.55;72.37
65758;BME280;52495;52.208;5.158;2024-03-29T01:06:46;98877.47;;;9.52;71.54
65758;BME280;52495;52.208;5.158;2024-03-29T01:09:12;98873.22;;;9.51;72.07
65758;BME280;52495;52.208;5.158;2024-03-29T01:11:39;98877.59;;;9.49;72.32
65758;BME280;52495;52.208;5.158;2024-03-29T01:14:05;98886.22;;;9.48;71.69
65758;BME280;52495;52.208;5.158;2024-03-29T01:16:31;98876.91;;;9.46;72.21
65758;BME280;52495;52.208;5.158;2024-03-29T01:18:57;98868.41;;;9.44;71.88
65758;BME280;52495;52.208;5.158;2024-03-29T01:21:23;98877.97;;;9.40;72.26
65758;BME280;52495;52.208;5.158;2024-03-29T01:23:48;98874.59;;;9.39;72.27
65758;BME280;52495;52.208;5.158;2024-03-29T01:26:14;98868.66;;;9.37;72.46
65758;BME280;52495;52.208;5.158;2024-03-29T01:28:41;98869.63;;;9.35;73.54
65758;BME280;52495;52.208;5.158;2024-03-29T01:31:07;98868.78;;;9.34;72.96
65758;BME280;52495;52.208;5.158;2024-03-29T01:33:33;98867.13;;;9.33;73.26
65758;BME280;52495;52.208;5.158;2024-03-29T01:35:59;98864.50;;;9.35;73.17
65758;BME280;52495;52.208;5.158;2024-03-29T01:38:24;98867.31;;;9.29;72.86
65758;BME280;52495;52.208;5.158;2024-03-29T01:40:50;98867.44;;;9.25;72.98
65758;BME280;52495;52.208;5.158;2024-03-29T01:43:16;98859.84;;;9.22;74.02
65758;BME280;52495;52.208;5.158;2024-03-29T01:45:47;98857.22;;;9.24;73.77
65758;BME280;52495;52.208;5.158;2024-03-29T01:48:14;98850.31;;;9.24;72.99
65758;BME280;52495;52.208;5.158;2024-03-29T01:50:41;98841.84;;;9.22;74.39
65758;BME280;52495;52.208;5.158;2024-03-29T01:53:08;98839.34;;;9.21;74.00
65758;BME280;52495;52.208;5.158;2024-03-29T01:55:35;98825.44;;;9.25;73.77
65758;BME280;52495;52.208;5.158;2024-03-29T01:58:02;98828.22;;;9.20;74.08
65758;BME280;52495;52.208;5.158;2024-03-29T02:00:30;98826.38;;;9.22;74.11
65758;BME280;52495;52.208;5.158;2024-03-29T02:03:02;98816.16;;;9.21;73.53
65758;BME280;52495;52.208;5.158;2024-03-29T02:05:30;98835.94;;;9.20;73.78
65758;BME280;52495;52.208;5.158;2024-03-29T02:07:56;98833.38;;;9.20;74.53
65758;BME280;52495;52.208;5.158;2024-03-29T02:10:24;98838.66;;;9.17;74.63
65758;BME280;52495;52.208;5.158;2024-03-29T02:12:50;98842.03;;;9.18;74.49
65758;BME280;52495;52.208;5.158;2024-03-29T02:15:17;98836.84;;;9.19;74.59
65758;BME280;52495;52.208;5.158;2024-03-29T02:17:44;98841.09;;;9.20;74.52
65758;BME280;52495;52.208;5.158;2024-03-29T02:20:12;98839.47;;;9.18;73.76
65758;BME280;52495;52.208;5.158;2024-03-29T02:22:44;98848.03;;;9.18;74.20
65758;BME280;52495;52.208;5.158;2024-03-29T02:25:14;98849.91;;;9.15;73.79
65758;BME280;52495;52.208;5.158;2024-03-29T02:27:42;98851.66;;;9.14;75.25
65758;BME280;52495;52.208;5.158;2024-03-29T02:30:13;98855.13;;;9.13;74.18
65758;BME280;52495;52.208;5.158;2024-03-29T02:32:39;98858.59;;;9.12;74.50
65758;BME280;52495;52.208;5.158;2024-03-29T02:35:07;98864.38;;;9.17;74.89
65758;BME280;52495;52.208;5.158;2024-03-29T02:37:35;98862.97;;;9.10;74.80
65758;BME280;52495;52.208;5.158;2024-03-29T02:40:02;98869.78;;;9.11;75.28
65758;BME280;52495;52.208;5.158;2024-03-29T02:42:30;98868.13;;;9.10;74.15
65758;BME280;52495;52.208;5.158;2024-03-29T02:44:57;98865.63;;;9.08;75.13
65758;BME280;52495;52.208;5.158;2024-03-29T02:47:24;98867.44;;;9.06;74.98
65758;BME280;52495;52.208;5.158;2024-03-29T02:49:49;98876.94;;;9.04;75.04
65758;BME280;52495;52.208;5.158;2024-03-29T02:52:16;98867.28;;;9.09;74.21
65758;BME280;52495;52.208;5.158;2024-03-29T02:54:42;98875.06;;;9.08;74.60
65758;BME280;52495;52.208;5.158;2024-03-29T02:57:09;98874.50;;;9.01;74.29
65758;BME280;52495;52.208;5.158;2024-03-29T02:59:35;98872.06;;;8.98;75.19
65758;BME280;52495;52.208;5.158;2024-03-29T03:02:02;98872.94;;;8.97;75.47
65758;BME280;52495;52.208;5.158;2024-03-29T03:04:28;98873.81;;;8.98;75.13
65758;BME280;52495;52.208;5.158;2024-03-29T03:06:55;98877.16;;;9.00;75.89
65758;BME280;52495;52.208;5.158;2024-03-29T03:09:21;98876.28;;;8.99;74.77
65758;BME280;52495;52.208;5.158;2024-03-29T03:12:06;98872.06;;;8.98;74.58
65758;BME280;52495;52.208;5.158;2024-03-29T03:14:32;98873.81;;;8.98;74.63
65758;BME280;52495;52.208;5.158;2024-03-29T03:17:01;98873.88;;;8.96;75.15
65758;BME280;52495;52.208;5.158;2024-03-29T03:19:27;98878.19;;;8.95;75.26
65758;BME280;52495;52.208;5.158;2024-03-29T03:21:53;98888.47;;;8.95;75.15
65758;BME280;52495;52.208;5.158;2024-03-29T03:24:19;98891.13;;;8.94;75.92
65758;BME280;52495;52.208;5.158;2024-03-29T03:26:45;98884.22;;;8.94;75.23
65758;BME280;52495;52.208;5.158;2024-03-29T03:29:12;98896.13;;;8.97;75.59
65758;BME280;52495;52.208;5.158;2024-03-29T03:31:39;98895.22;;;8.98;75.46
65758;BME280;52495;52.208;5.158;2024-03-29T03:34:06;98888.34;;;8.99;75.83
65758;BME280;52495;52.208;5.158;2024-03-29T03:36:32;98892.50;;;9.01;74.99
65758;BME280;52495;52.208;5.158;2024-03-29T03:38:58;98894.19;;;9.02;75.29
65758;BME280;52495;52.208;5.158;2024-03-29T03:41:25;98890.72;;;9.03;75.51
65758;BME280;52495;52.208;5.158;2024-03-29T03:43:50;98891.63;;;9.02;75.59
65758;BME280;52495;52.208;5.158;2024-03-29T03:46:17;98893.28;;;9.03;74.76
65758;BME280;52495;52.208;5.158;2024-03-29T03:48:43;98888.09;;;9.05;75.10
65758;BME280;52495;52.208;5.158;2024-03-29T03:51:11;98894.84;;;9.07;74.87
65758;BME280;52495;52.208;5.158;2024-03-29T03:53:36;98894.00;;;9.07;74.63
65758;BME280;52495;52.208;5.158;2024-03-29T03:56:04;98894.88;;;9.06;75.39
65758;BME280;52495;52.208;5.158;2024-03-29T03:58:30;98899.91;;;9.09;74.51
65758;BME280;52495;52.208;5.158;2024-03-29T04:01:03;98898.25;;;9.08;74.50
65758;BME280;52495;52.208;5.158;2024-03-29T04:03:29;98894.84;;;9.07;74.64
65758;BME280;52495;52.208;5.158;2024-03-29T04:05:56;98896.50;;;9.08;74.53
65758;BME280;52495;52.208;5.158;2024-03-29T04:08:23;98903.59;;;9.03;74.46
65758;BME280;52495;52.208;5.158;2024-03-29T04:10:50;98910.34;;;9.06;74.24
65758;BME280;52495;52.208;5.158;2024-03-29T04:13:15;98907.72;;;9.07;74.36
65758;BME280;52495;52.208;5.158;2024-03-29T04:15:42;98911.97;;;9.08;73.97
65758;BME280;52495;52.208;5.158;2024-03-29T04:18:08;98892.19;;;9.09;74.23
65758;BME280;52495;52.208;5.158;2024-03-29T04:20:34;98898.06;;;9.13;74.82
65758;BME280;52495;52.208;5.158;2024-03-29T04:23:03;98901.47;;;9.13;74.47
65758;BME280;52495;52.208;5.158;2024-03-29T04:25:32;98901.47;;;9.13;75.12
65758;BME280;52495;52.208;5.158;2024-03-29T04:27:58;98898.00;;;9.14;74.64
65758;BME280;52495;52.208;5.158;2024-03-29T04:30:25;98896.22;;;9.15;74.51
65758;BME280;52495;52.208;5.158;2024-03-29T04:32:50;98907.31;;;9.17;74.99
65758;BME280;52495;52.208;5.158;2024-03-29T04:35:17;98898.69;;;9.18;75.54
65758;BME280;52495;52.208;5.158;2024-03-29T04:37:43;98902.88;;;9.20;75.14
65758;BME280;52495;52.208;5.158;2024-03-29T04:40:10;98901.97;;;9.21;74.93
65758;BME280;52495;52.208;5.158;2024-03-29T04:42:38;98911.50;;;9.19;75.54
65758;BME280;52495;52.208;5.158;2024-03-29T04:45:06;98902.88;;;9.20;75.83
65758;BME280;52495;52.208;5.158;2024-03-29T04:47:32;98890.84;;;9.21;75.09
65758;BME280;52495;52.208;5.158;2024-03-29T04:49:59;98892.31;;;9.26;74.78
65758;BME280;52495;52.208;5.158;2024-03-29T04:52:25;98901.06;;;9.22;75.42
65758;BME280;52495;52.208;5.158;2024-03-29T04:54:52;98901.97;;;9.21;75.56
65758;BME280;52495;52.208;5.158;2024-03-29T04:57:19;98895.09;;;9.22;75.55
65758;BME280;52495;52.208;5.158;2024-03-29T04:59:49;98918.19;;;9.23;77.03
65758;BME280;52495;52.208;5.158;2024-03-29T05:02:16;98919.81;;;9.26;76.09
65758;BME280;52495;52.208;5.158;2024-03-29T05:04:43;98912.00;;;9.27;76.32
65758;BME280;52495;52.208;5.158;2024-03-29T05:07:09;98925.66;;;9.30;76.44
65758;BME280;52495;52.208;5.158;2024-03-29T05:09:36;98930.88;;;9.28;76.87
65758;BME280;52495;52.208;5.158;2024-03-29T05:12:02;98935.19;;;9.27;77.49
65758;BME280;52495;52.208;5.158;2024-03-29T05:14:28;98924.97;;;9.26;78.01
65758;BME280;52495;52.208;5.158;2024-03-29T05:16:56;98933.47;;;9.28;77.45
65758;BME280;52495;52.208;5.158;2024-03-29T05:19:23;98929.13;;;9.29;77.64
65758;BME280;52495;52.208;5.158;2024-03-29T05:21:49;98932.56;;;9.29;77.92
65758;BME280;52495;52.208;5.158;2024-03-29T05:24:16;98924.06;;;9.27;78.18
65758;BME280;52495;52.208;5.158;2024-03-29T05:26:43;98925.72;;;9.28;78.85
65758;BME280;52495;52.208;5.158;2024-03-29T05:29:09;98918.13;;;9.25;79.49
65758;BME280;52495;52.208;5.158;2024-03-29T05:31:36;98940.31;;;9.27;79.15
65758;BME280;52495;52.208;5.158;2024-03-29T05:34:04;98934.41;;;9.25;79.55
65758;BME280;52495;52.208;5.158;2024-03-29T05:36:31;98937.75;;;9.27;79.64
65758;BME280;52495;52.208;5.158;2024-03-29T05:38:57;98939.31;;;9.32;80.65
65758;BME280;52495;52.208;5.158;2024-03-29T05:41:24;98936.03;;;9.28;81.21
65758;BME280;52495;52.208;5.158;2024-03-29T05:43:51;98947.34;;;9.24;82.61
65758;BME280;52495;52.208;5.158;2024-03-29T05:46:18;98935.38;;;9.23;83.02
65758;BME280;52495;52.208;5.158;2024-03-29T05:48:44;98944.97;;;9.19;84.45
65758;BME280;52495;52.208;5.158;2024-03-29T05:51:12;98941.50;;;9.20;84.92
65758;BME280;52495;52.208;5.158;2024-03-29T05:53:39;98963.91;;;9.18;85.81
65758;BME280;52495;52.208;5.158;2024-03-29T05:56:06;98956.75;;;9.25;86.45
65758;BME280;52495;52.208;5.158;2024-03-29T05:58:33;98957.13;;;9.16;87.30
65758;BME280;52495;52.208;5.158;2024-03-29T06:01:00;98947.72;;;9.15;87.29
65758;BME280;52495;52.208;5.158;2024-03-29T06:03:27;98952.25;;;9.09;88.83
65758;BME280;52495;52.208;5.158;2024-03-29T06:05:54;98950.69;;;9.05;90.48
65758;BME280;52495;52.208;5.158;2024-03-29T06:08:21;98967.28;;;8.98;91.91
65758;BME280;52495;52.208;5.158;2024-03-29T06:10:49;98978.44;;;8.99;92.74
65758;BME280;52495;52.208;5.158;2024-03-29T06:13:17;98979.41;;;8.96;94.91
65758;BME280;52495;52.208;5.158;2024-03-29T06:15:55;98980.47;;;8.90;95.69
65758;BME280;52495;52.208;5.158;2024-03-29T06:18:39;98978.78;;;8.89;96.30
65758;BME280;52495;52.208;5.158;2024-03-29T06:21:06;98979.66;;;8.90;97.73
65758;BME280;52495;52.208;5.158;2024-03-29T06:23:34;98984.91;;;8.87;98.66
65758;BME280;52495;52.208;5.158;2024-03-29T06:26:00;98974.50;;;8.90;97.61
65758;BME280;52495;52.208;5.158;2024-03-29T06:28:28;98970.16;;;8.90;98.62
65758;BME280;52495;52.208;5.158;2024-03-29T06:30:54;98977.00;;;8.91;99.02
65758;BME280;52495;52.208;5.158;2024-03-29T06:33:21;98984.09;;;8.86;100.00
65758;BME280;52495;52.208;5.158;2024-03-29T06:35:53;98986.78;;;8.83;100.00
65758;BME280;52495;52.208;5.158;2024-03-29T06:38:20;98996.09;;;8.86;100.00
65758;BME280;52495;52.208;5.158;2024-03-29T06:40:48;98984.19;;;8.83;100.00
65758;BME280;52495;52.208;5.158;2024-03-29T06:43:14;98990.94;;;8.86;100.00
65758;BME280;52495;52.208;5.158;2024-03-29T06:45:41;98990.91;;;8.87;100.00
65758;BME280;52495;52.208;5.158;2024-03-29T06:48:10;98985.56;;;8.92;100.00
65758;BME280;52495;52.208;5.158;2024-03-29T06:50:37;98983.78;;;8.94;100.00
65758;BME280;52495;52.208;5.158;2024-03-29T06:53:04;98987.06;;;8.98;100.00
65758;BME280;52495;52.208;5.158;2024-03-29T06:55:31;98979.91;;;9.04;100.00
65758;BME280;52495;52.208;5.158;2024-03-29T06:57:59;98977.22;;;9.07;100.00
65758;BME280;52495;52.208;5.158;2024-03-29T07:00:26;98965.03;;;9.11;100.00
65758;BME280;52495;52.208;5.158;2024-03-29T07:02:52;98977.69;;;9.17;100.00
65758;BME280;52495;52.208;5.158;2024-03-29T07:05:19;98979.22;;;9.21;100.00
65758;BME280;52495;52.208;5.158;2024-03-29T07:07:45;98982.56;;;9.23;100.00
65758;BME280;52495;52.208;5.158;2024-03-29T07:10:12;98977.28;;;9.26;100.00
65758;BME280;52495;52.208;5.158;2024-03-29T07:12:39;98978.91;;;9.29;100.00
65758;BME280;52495;52.208;5.158;2024-03-29T07:15:08;98985.59;;;9.33;100.00
65758;BME280;52495;52.208;5.158;2024-03-29T07:17:34;98988.88;;;9.37;100.00
65758;BME280;52495;52.208;5.158;2024-03-29T07:20:01;98984.50;;;9.39;100.00
65758;BME280;52495;52.208;5.158;2024-03-29T07:22:28;98979.97;;;9.44;100.00
65758;BME280;52495;52.208;5.158;2024-03-29T07:24:55;98985.91;;;9.46;100.00
65758;BME280;52495;52.208;5.158;2024-03-29T07:27:21;98988.34;;;9.49;100.00
65758;BME280;52495;52.208;5.158;2024-03-29T07:29:48;98995.84;;;9.55;100.00
65758;BME280;52495;52.208;5.158;2024-03-29T07:32:16;98992.03;;;9.64;100.00
65758;BME280;52495;52.208;5.158;2024-03-29T07:34:43;99001.91;;;9.74;100.00
65758;BME280;52495;52.208;5.158;2024-03-29T07:37:09;99009.31;;;9.81;99.90
65758;BME280;52495;52.208;5.158;2024-03-29T07:39:40;99011.69;;;9.86;99.93
65758;BME280;52495;52.208;5.158;2024-03-29T07:42:08;99005.56;;;9.89;99.32
65758;BME280;52495;52.208;5.158;2024-03-29T07:44:34;99020.28;;;9.86;99.09
65758;BME280;52495;52.208;5.158;2024-03-29T07:47:01;99022.13;;;9.83;98.84
65758;BME280;52495;52.208;5.158;2024-03-29T07:49:29;99021.44;;;9.79;99.28
65758;BME280;52495;52.208;5.158;2024-03-29T07:51:56;99028.00;;;9.86;98.65
65758;BME280;52495;52.208;5.158;2024-03-29T07:54:22;99030.38;;;9.91;99.21
65758;BME280;52495;52.208;5.158;2024-03-29T07:56:49;99030.81;;;10.01;98.73
65758;BME280;52495;52.208;5.158;2024-03-29T07:59:15;99025.31;;;10.09;97.55
65758;BME280;52495;52.208;5.158;2024-03-29T08:01:44;99010.91;;;10.24;98.33
65758;BME280;52495;52.208;5.158;2024-03-29T08:04:11;99009.38;;;10.39;98.14
65758;BME280;52495;52.208;5.158;2024-03-29T08:06:39;99011.19;;;10.56;97.00
65758;BME280;52495;52.208;5.158;2024-03-29T08:09:06;99011.41;;;10.69;95.11
65758;BME280;52495;52.208;5.158;2024-03-29T08:11:33;98993.22;;;10.72;94.61
65758;BME280;52495;52.208;5.158;2024-03-29T08:13:59;98993.00;;;10.76;93.34
65758;BME280;52495;52.208;5.158;2024-03-29T08:16:26;99001.34;;;10.82;92.80
65758;BME280;52495;52.208;5.158;2024-03-29T08:18:53;99008.13;;;10.84;91.61
65758;BME280;52495;52.208;5.158;2024-03-29T08:21:19;99014.13;;;10.85;90.51
65758;BME280;52495;52.208;5.158;2024-03-29T08:23:47;99022.63;;;10.87;90.79
65758;BME280;52495;52.208;5.158;2024-03-29T08:26:16;99025.22;;;10.87;90.43
65758;BME280;52495;52.208;5.158;2024-03-29T08:28:44;99027.66;;;10.90;90.79
65758;BME280;52495;52.208;5.158;2024-03-29T08:31:11;99018.84;;;10.94;90.59
65758;BME280;52495;52.208;5.158;2024-03-29T08:33:38;99016.34;;;10.92;90.47
65758;BME280;52495;52.208;5.158;2024-03-29T08:36:05;99016.09;;;10.97;90.21
65758;BME280;52495;52.208;5.158;2024-03-29T08:38:33;99021.41;;;10.94;89.25
65758;BME280;52495;52.208;5.158;2024-03-29T08:41:01;99036.72;;;10.99;89.26
65758;BME280;52495;52.208;5.158;2024-03-29T08:43:28;99047.84;;;10.99;89.21
65758;BME280;52495;52.208;5.158;2024-03-29T08:45:54;99062.31;;;11.03;88.73
65758;BME280;52495;52.208;5.158;2024-03-29T08:48:22;99054.78;;;10.99;89.12
65758;BME280;52495;52.208;5.158;2024-03-29T08:50:49;99058.88;;;11.03;89.18
65758;BME280;52495;52.208;5.158;2024-03-29T08:53:16;99061.63;;;11.00;89.04
65758;BME280;52495;52.208;5.158;2024-03-29T08:55:42;99060.09;;;10.96;89.01
65758;BME280;52495;52.208;5.158;2024-03-29T08:58:11;99066.16;;;10.95;89.31
65758;BME280;52495;52.208;5.158;2024-03-29T09:00:37;99049.63;;;10.99;89.55
65758;BME280;52495;52.208;5.158;2024-03-29T09:03:04;99047.63;;;11.04;89.69
65758;BME280;52495;52.208;5.158;2024-03-29T09:05:31;99045.69;;;11.09;89.66
65758;BME280;52495;52.208;5.158;2024-03-29T09:07:57;99051.50;;;11.13;89.49
65758;BME280;52495;52.208;5.158;2024-03-29T09:10:25;99060.75;;;11.18;89.35
65758;BME280;52495;52.208;5.158;2024-03-29T09:12:52;99066.72;;;11.19;88.75
65758;BME280;52495;52.208;5.158;2024-03-29T09:15:20;99070.22;;;11.18;89.07
65758;BME280;52495;52.208;5.158;2024-03-29T09:17:47;99062.31;;;11.21;89.04
65758;BME280;52495;52.208;5.158;2024-03-29T09:20:13;99047.13;;;11.32;89.80
65758;BME280;52495;52.208;5.158;2024-03-29T09:22:40;99052.53;;;11.45;89.68
65758;BME280;52495;52.208;5.158;2024-03-29T09:25:07;99053.72;;;11.56;89.27
65758;BME280;52495;52.208;5.158;2024-03-29T09:27:38;99066.28;;;11.63;88.69
65758;BME280;52495;52.208;5.158;2024-03-29T09:30:09;99087.94;;;11.78;88.65
65758;BME280;52495;52.208;5.158;2024-03-29T09:32:38;99088.81;;;11.95;87.94
65758;BME280;52495;52.208;5.158;2024-03-29T09:35:04;99091.66;;;12.08;86.47
65758;BME280;52495;52.208;5.158;2024-03-29T09:37:31;99091.50;;;12.11;84.90
65758;BME280;52495;52.208;5.158;2024-03-29T09:40:02;99090.50;;;12.13;84.75
65758;BME280;52495;52.208;5.158;2024-03-29T09:42:31;99097.34;;;12.14;84.31
65758;BME280;52495;52.208;5.158;2024-03-29T09:44:59;99094.09;;;12.11;84.18
65758;BME280;52495;52.208;5.158;2024-03-29T09:47:26;99104.59;;;12.08;84.18
65758;BME280;52495;52.208;5.158;2024-03-29T09:49:55;99105.03;;;11.98;83.69
65758;BME280;52495;52.208;5.158;2024-03-29T09:52:23;99108.25;;;11.86;83.61
65758;BME280;52495;52.208;5.158;2024-03-29T09:54:51;99106.19;;;11.75;83.87
65758;BME280;52495;52.208;5.158;2024-03-29T09:57:18;99123.53;;;11.73;84.02
65758;BME280;52495;52.208;5.158;2024-03-29T09:59:45;99121.16;;;11.68;84.56
65758;BME280;52495;52.208;5.158;2024-03-29T10:02:15;99116.00;;;11.68;84.74
65758;BME280;52495;52.208;5.158;2024-03-29T10:04:42;99110.59;;;11.73;85.10
65758;BME280;52495;52.208;5.158;2024-03-29T10:07:11;99107.81;;;11.78;85.33
65758;BME280;52495;52.208;5.158;2024-03-29T10:09:41;99091.19;;;11.82;85.66
65758;BME280;52495;52.208;5.158;2024-03-29T10:12:08;99092.63;;;11.88;85.09
65758;BME280;52495;52.208;5.158;2024-03-29T10:14:43;99096.59;;;11.95;84.19
65758;BME280;52495;52.208;5.158;2024-03-29T10:17:15;99099.25;;;12.11;84.50
65758;BME280;52495;52.208;5.158;2024-03-29T10:19:42;99098.63;;;12.23;83.58
65758;BME280;52495;52.208;5.158;2024-03-29T10:22:10;99101.41;;;12.36;83.25
65758;BME280;52495;52.208;5.158;2024-03-29T10:24:38;99097.56;;;12.43;81.40
65758;BME280;52495;52.208;5.158;2024-03-29T10:27:05;99097.72;;;12.40;81.75
65758;BME280;52495;52.208;5.158;2024-03-29T10:29:32;99093.41;;;12.41;81.86
65758;BME280;52495;52.208;5.158;2024-03-29T10:32:00;99105.00;;;12.50;82.02
65758;BME280;52495;52.208;5.158;2024-03-29T10:34:27;99099.44;;;12.57;81.99
65758;BME280;52495;52.208;5.158;2024-03-29T10:37:00;99098.44;;;12.76;81.69
65758;BME280;52495;52.208;5.158;2024-03-29T10:39:29;99102.44;;;12.82;79.58
65758;BME280;52495;52.208;5.158;2024-03-29T10:41:56;99114.81;;;12.93;80.23
65758;BME280;52495;52.208;5.158;2024-03-29T10:44:23;99121.13;;;13.03;79.10
65758;BME280;52495;52.208;5.158;2024-03-29T10:46:50;99119.06;;;12.94;77.28
65758;BME280;52495;52.208;5.158;2024-03-29T10:49:19;99104.44;;;12.93;77.33
65758;BME280;52495;52.208;5.158;2024-03-29T10:51:46;99104.94;;;12.99;77.10
65758;BME280;52495;52.208;5.158;2024-03-29T10:54:13;99104.84;;;13.01;76.44
65758;BME280;52495;52.208;5.158;2024-03-29T10:56:42;99112.28;;;13.07;76.73
65758;BME280;52495;52.208;5.158;2024-03-29T10:59:12;99115.69;;;13.08;76.90
65758;BME280;52495;52.208;5.158;2024-03-29T11:01:44;99132.75;;;13.12;77.63
65758;BME280;52495;52.208;5.158;2024-03-29T11:04:21;99125.63;;;13.15;77.14
65758;BME280;52495;52.208;5.158;2024-03-29T11:06:50;99134.25;;;13.16;76.77
65758;BME280;52495;52.208;5.158;2024-03-29T11:09:20;99139.34;;;13.17;76.65
65758;BME280;52495;52.208;5.158;2024-03-29T11:11:51;99149.03;;;13.14;76.43
65758;BME280;52495;52.208;5.158;2024-03-29T11:14:20;99162.84;;;13.14;76.82
65758;BME280;52495;52.208;5.158;2024-03-29T11:16:51;99147.81;;;13.21;77.32
65758;BME280;52495;52.208;5.158;2024-03-29T11:19:23;99140.03;;;13.21;76.80
65758;BME280;52495;52.208;5.158;2024-03-29T11:21:50;99139.75;;;13.26;77.07
65758;BME280;52495;52.208;5.158;2024-03-29T11:24:18;99152.56;;;13.29;77.17
65758;BME280;52495;52.208;5.158;2024-03-29T11:26:45;99135.66;;;13.38;77.55
65758;BME280;52495;52.208;5.158;2024-03-29T11:29:19;99147.28;;;13.46;76.84
65758;BME280;52495;52.208;5.158;2024-03-29T11:31:46;99136.38;;;13.56;75.89
65758;BME280;52495;52.208;5.158;2024-03-29T11:34:18;99126.59;;;13.61;74.23
65758;BME280;52495;52.208;5.158;2024-03-29T11:36:45;99139.44;;;13.62;74.14
65758;BME280;52495;52.208;5.158;2024-03-29T11:39:20;99140.41;;;13.76;74.30
65758;BME280;52495;52.208;5.158;2024-03-29T11:41:47;99130.09;;;13.90;72.64
65758;BME280;52495;52.208;5.158;2024-03-29T11:44:14;99124.34;;;14.00;72.00
65758;BME280;52495;52.208;5.158;2024-03-29T11:46:43;99129.66;;;14.13;71.20
65758;BME280;52495;52.208;5.158;2024-03-29T11:49:10;99138.81;;;14.18;69.59
65758;BME280;52495;52.208;5.158;2024-03-29T11:51:37;99124.00;;;14.20;68.10
65758;BME280;52495;52.208;5.158;2024-03-29T11:54:04;99127.81;;;14.29;68.54
65758;BME280;52495;52.208;5.158;2024-03-29T11:56:31;99135.59;;;14.44;67.99
65758;BME280;52495;52.208;5.158;2024-03-29T11:58:58;99125.75;;;14.49;66.23
65758;BME280;52495;52.208;5.158;2024-03-29T12:01:26;99135.59;;;14.44;65.73
65758;BME280;52495;52.208;5.158;2024-03-29T12:03:56;99139.28;;;14.39;65.44
65758;BME280;52495;52.208;5.158;2024-03-29T12:06:22;99143.19;;;14.32;65.15
65758;BME280;52495;52.208;5.158;2024-03-29T12:08:49;99149.31;;;14.31;65.17
65758;BME280;52495;52.208;5.158;2024-03-29T12:11:18;99148.28;;;14.34;66.11
65758;BME280;52495;52.208;5.158;2024-03-29T12:13:45;99151.97;;;14.30;65.11
65758;BME280;52495;52.208;5.158;2024-03-29T12:16:12;99162.28;;;14.31;65.57
65758;BME280;52495;52.208;5.158;2024-03-29T12:18:39;99155.44;;;14.30;65.83
65758;BME280;52495;52.208;5.158;2024-03-29T12:21:07;99155.03;;;14.36;65.88
65758;BME280;52495;52.208;5.158;2024-03-29T12:23:35;99157.28;;;14.42;65.39
65758;BME280;52495;52.208;5.158;2024-03-29T12:26:02;99161.19;;;14.50;65.73
65758;BME280;52495;52.208;5.158;2024-03-29T12:28:29;99157.66;;;14.51;64.14
65758;BME280;52495;52.208;5.158;2024-03-29T12:30:59;99144.19;;;14.44;64.26
65758;BME280;52495;52.208;5.158;2024-03-29T12:33:26;99151.16;;;14.44;64.65
65758;BME280;52495;52.208;5.158;2024-03-29T12:35:54;99145.34;;;14.40;64.45
65758;BME280;52495;52.208;5.158;2024-03-29T12:38:23;99151.28;;;14.42;63.77
65758;BME280;52495;52.208;5.158;2024-03-29T12:40:51;99155.44;;;14.45;62.76
65758;BME280;52495;52.208;5.158;2024-03-29T12:43:22;99160.44;;;14.48;63.15
65758;BME280;52495;52.208;5.158;2024-03-29T12:45:50;99160.25;;;14.51;63.28
65758;BME280;52495;52.208;5.158;2024-03-29T12:48:18;99165.16;;;14.55;63.24
65758;BME280;52495;52.208;5.158;2024-03-29T12:50:46;99168.31;;;14.61;63.49
65758;BME280;52495;52.208;5.158;2024-03-29T12:53:14;99170.50;;;14.68;63.00
65758;BME280;52495;52.208;5.158;2024-03-29T12:55:44;99165.53;;;14.78;62.81
65758;BME280;52495;52.208;5.158;2024-03-29T12:58:12;99170.25;;;14.86;62.60
65758;BME280;52495;52.208;5.158;2024-03-29T13:00:39;99157.94;;;14.90;62.71
65758;BME280;52495;52.208;5.158;2024-03-29T13:03:07;99154.84;;;14.97;62.80
65758;BME280;52495;52.208;5.158;2024-03-29T13:05:34;99150.91;;;15.05;62.29